TCA7378 SVBC-SVMP
Flight info
| Callsign | TCA7378 |
|---|---|
| Flight time | N/A |
| Altitude | 20000 |
| Route | 101652N0662218W |
| Aircraft | C25B/M-SDE2E3FGHRWXY/LB1 |
Departure
| Time | 2026-04-13 22:32 |
|---|---|
| Airport | General José Antonio Anzoategui International Airport (SVBC) |
Arrival
| Time | N/A |
|---|---|
| Airport | SVMP |
| Time | Latitude | Longitude | Altitude | Speed | Heading |
|---|---|---|---|---|---|
| 2026-04-13 22:32 | 10.15373 | -64.92137 | 18246 ft | 278 kts | 262° |
| 2026-04-13 22:32 | 10.15110 | -64.94086 | 19112 ft | 280 kts | 262° |
| 2026-04-13 22:32 | 10.14829 | -64.96259 | 19840 ft | 292 kts | 262° |
| 2026-04-13 22:32 | 10.14599 | -64.97983 | 19864 ft | 316 kts | 262° |
| 2026-04-13 22:33 | 10.14294 | -65.00283 | 19878 ft | 340 kts | 262° |
| 2026-04-13 22:33 | 10.13978 | -65.02706 | 19877 ft | 347 kts | 262° |
| 2026-04-13 22:33 | 10.13657 | -65.05125 | 19872 ft | 345 kts | 262° |
| 2026-04-13 22:34 | 10.12701 | -65.12334 | 19869 ft | 343 kts | 262° |
| 2026-04-13 22:34 | 10.12389 | -65.14733 | 19870 ft | 343 kts | 262° |
| 2026-04-13 22:34 | 10.12069 | -65.17097 | 19873 ft | 342 kts | 262° |
| 2026-04-13 22:35 | 10.11757 | -65.19494 | 19866 ft | 342 kts | 262° |
| 2026-04-13 22:35 | 10.11437 | -65.21886 | 19868 ft | 342 kts | 262° |
| 2026-04-13 22:35 | 10.11123 | -65.24271 | 19869 ft | 341 kts | 262° |
| 2026-04-13 22:35 | 10.10704 | -65.27441 | 19868 ft | 342 kts | 262° |
| 2026-04-13 22:36 | 10.10484 | -65.29059 | 19868 ft | 342 kts | 262° |
| 2026-04-13 22:36 | 10.10168 | -65.31446 | 19867 ft | 342 kts | 262° |
| 2026-04-13 22:36 | 10.09854 | -65.33838 | 19868 ft | 342 kts | 262° |
| 2026-04-13 22:36 | 10.09533 | -65.36197 | 19867 ft | 342 kts | 262° |
| 2026-04-13 22:37 | 10.09219 | -65.38590 | 19869 ft | 342 kts | 262° |
| 2026-04-13 22:37 | 10.08901 | -65.40990 | 19868 ft | 342 kts | 262° |
| 2026-04-13 22:37 | 10.08582 | -65.43382 | 19868 ft | 342 kts | 262° |
| 2026-04-13 22:37 | 10.08325 | -65.45778 | 19862 ft | 341 kts | 268° |
| 2026-04-13 22:38 | 10.08507 | -65.48180 | 19860 ft | 342 kts | 276° |
| 2026-04-13 22:38 | 10.09003 | -65.50539 | 19861 ft | 342 kts | 282° |
| 2026-04-13 22:38 | 10.09537 | -65.52897 | 19863 ft | 343 kts | 280° |
| 2026-04-13 22:38 | 10.10028 | -65.55229 | 19866 ft | 343 kts | 281° |
| 2026-04-13 22:39 | 10.10556 | -65.57586 | 19878 ft | 343 kts | 281° |
| 2026-04-13 22:39 | 10.11080 | -65.59949 | 19874 ft | 343 kts | 281° |
| 2026-04-13 22:39 | 10.11608 | -65.62307 | 19875 ft | 343 kts | 281° |
| 2026-04-13 22:39 | 10.12131 | -65.64671 | 19877 ft | 343 kts | 281° |
| 2026-04-13 22:40 | 10.12651 | -65.67034 | 19876 ft | 343 kts | 281° |
| 2026-04-13 22:40 | 10.13174 | -65.69394 | 19880 ft | 343 kts | 281° |
| 2026-04-13 22:40 | 10.13701 | -65.71753 | 19881 ft | 343 kts | 281° |
| 2026-04-13 22:40 | 10.14227 | -65.74115 | 19882 ft | 343 kts | 281° |
| 2026-04-13 22:41 | 10.14730 | -65.76441 | 19882 ft | 343 kts | 281° |
| 2026-04-13 22:41 | 10.15258 | -65.78803 | 19879 ft | 343 kts | 281° |
| 2026-04-13 22:41 | 10.15784 | -65.81163 | 19883 ft | 343 kts | 281° |
| 2026-04-13 22:41 | 10.16299 | -65.83524 | 19884 ft | 343 kts | 281° |
| 2026-04-13 22:42 | 10.16826 | -65.85884 | 19886 ft | 343 kts | 281° |
| 2026-04-13 22:42 | 10.17343 | -65.88242 | 19735 ft | 339 kts | 281° |
| 2026-04-13 22:42 | 10.17855 | -65.90539 | 19329 ft | 329 kts | 281° |
| 2026-04-13 22:42 | 10.18343 | -65.92750 | 18911 ft | 322 kts | 281° |
| 2026-04-13 22:43 | 10.18825 | -65.94944 | 18488 ft | 315 kts | 281° |
| 2026-04-13 22:43 | 10.19303 | -65.97096 | 18072 ft | 310 kts | 281° |
| 2026-04-13 22:43 | 10.19766 | -65.99218 | 17665 ft | 306 kts | 281° |
| 2026-04-13 22:43 | 10.20227 | -66.01307 | 17263 ft | 302 kts | 281° |
| 2026-04-13 22:44 | 10.20689 | -66.03377 | 16864 ft | 299 kts | 281° |
| 2026-04-13 22:44 | 10.21135 | -66.05430 | 16472 ft | 297 kts | 281° |
| 2026-04-13 22:44 | 10.21587 | -66.07465 | 16080 ft | 295 kts | 281° |
| 2026-04-13 22:44 | 10.22025 | -66.09462 | 15695 ft | 293 kts | 281° |
| 2026-04-13 22:45 | 10.22467 | -66.11477 | 15312 ft | 292 kts | 281° |
| 2026-04-13 22:45 | 10.22910 | -66.13483 | 14930 ft | 291 kts | 282° |
| 2026-04-13 22:45 | 10.23349 | -66.15486 | 14546 ft | 290 kts | 281° |
| 2026-04-13 22:45 | 10.23791 | -66.17485 | 14161 ft | 291 kts | 282° |
| 2026-04-13 22:46 | 10.24231 | -66.19491 | 13775 ft | 291 kts | 282° |
| 2026-04-13 22:46 | 10.24674 | -66.21499 | 13389 ft | 292 kts | 282° |
| 2026-04-13 22:46 | 10.25113 | -66.23510 | 13002 ft | 292 kts | 282° |
| 2026-04-13 22:46 | 10.25550 | -66.25495 | 12622 ft | 292 kts | 282° |
| 2026-04-13 22:47 | 10.25993 | -66.27507 | 12231 ft | 293 kts | 282° |
| 2026-04-13 22:47 | 10.26433 | -66.29528 | 11844 ft | 292 kts | 282° |
| 2026-04-13 22:47 | 10.26882 | -66.31543 | 11456 ft | 293 kts | 282° |
| 2026-04-13 22:47 | 10.27319 | -66.33566 | 11067 ft | 293 kts | 282° |
| 2026-04-13 22:48 | 10.27756 | -66.35588 | 10668 ft | 293 kts | 280° |
| 2026-04-13 22:48 | 10.27768 | -66.37608 | 10287 ft | 280 kts | 262° |
| 2026-04-13 22:48 | 10.27365 | -66.39491 | 9924 ft | 266 kts | 250° |
| 2026-04-13 22:48 | 10.26753 | -66.41197 | 9586 ft | 256 kts | 250° |
| 2026-04-13 22:49 | 10.26303 | -66.42918 | 9248 ft | 249 kts | 257° |
| 2026-04-13 22:49 | 10.26043 | -66.44639 | 8926 ft | 244 kts | 261° |
| 2026-04-13 22:49 | 10.25831 | -66.46330 | 8613 ft | 240 kts | 261° |
| 2026-04-13 22:49 | 10.25628 | -66.47996 | 8304 ft | 236 kts | 262° |
| 2026-04-13 22:50 | 10.25437 | -66.49639 | 8001 ft | 232 kts | 263° |
| 2026-04-13 22:50 | 10.25266 | -66.51257 | 7703 ft | 228 kts | 262° |
| 2026-04-13 22:50 | 10.25094 | -66.52850 | 7410 ft | 226 kts | 263° |
| 2026-04-13 22:50 | 10.24923 | -66.54409 | 7137 ft | 224 kts | 263° |
| 2026-04-13 22:51 | 10.24747 | -66.55972 | 6850 ft | 222 kts | 263° |
| 2026-04-13 22:51 | 10.24573 | -66.57521 | 6553 ft | 220 kts | 262° |
| 2026-04-13 22:51 | 10.24377 | -66.59048 | 6268 ft | 217 kts | 259° |
| 2026-04-13 22:51 | 10.24049 | -66.60537 | 6005 ft | 215 kts | 257° |
| 2026-04-13 22:52 | 10.23725 | -66.62014 | 5717 ft | 213 kts | 256° |
| 2026-04-13 22:52 | 10.23387 | -66.63479 | 5446 ft | 213 kts | 257° |
| 2026-04-13 22:52 | 10.23049 | -66.64939 | 5181 ft | 212 kts | 257° |
| 2026-04-13 22:52 | 10.22707 | -66.66373 | 4914 ft | 211 kts | 257° |
| 2026-04-13 22:53 | 10.22361 | -66.67818 | 4655 ft | 211 kts | 257° |
| 2026-04-13 22:53 | 10.22008 | -66.69264 | 4432 ft | 208 kts | 257° |
| 2026-04-13 22:53 | 10.21662 | -66.70641 | 4235 ft | 195 kts | 257° |
| 2026-04-13 22:53 | 10.21297 | -66.71934 | 4003 ft | 187 kts | 250° |
| 2026-04-13 22:54 | 10.20772 | -66.73127 | 3796 ft | 183 kts | 247° |
| 2026-04-13 22:54 | 10.20246 | -66.74292 | 3571 ft | 181 kts | 247° |
| 2026-04-13 22:54 | 10.19724 | -66.75428 | 3333 ft | 181 kts | 247° |
| 2026-04-13 22:54 | 10.19186 | -66.76617 | 3098 ft | 189 kts | 246° |
| 2026-04-13 22:55 | 10.18625 | -66.77833 | 2945 ft | 190 kts | 249° |
| 2026-04-13 22:55 | 10.18069 | -66.79058 | 2711 ft | 192 kts | 245° |
| 2026-04-13 22:55 | 10.17501 | -66.80276 | 2536 ft | 182 kts | 247° |
| 2026-04-13 22:55 | 10.17036 | -66.81289 | 2583 ft | 143 kts | 246° |
| 2026-04-13 22:56 | 10.16636 | -66.82171 | 2401 ft | 136 kts | 247° |
| 2026-04-13 22:56 | 10.16229 | -66.83025 | 2218 ft | 134 kts | 246° |
| 2026-04-13 22:56 | 10.15856 | -66.83866 | 2002 ft | 132 kts | 246° |
| 2026-04-13 22:56 | 10.15192 | -66.84461 | 1723 ft | 135 kts | 189° |
| 2026-04-13 22:57 | 10.14306 | -66.84268 | 1571 ft | 126 kts | 156° |
| 2026-04-13 22:57 | 10.13650 | -66.83744 | 1408 ft | 118 kts | 127° |
| 2026-04-13 22:57 | 10.13057 | -66.83187 | 1256 ft | 116 kts | 142° |
| 2026-04-13 22:57 | 10.12592 | -66.82577 | 1076 ft | 109 kts | 96° |
| 2026-04-13 22:58 | 10.12660 | -66.81867 | 1131 ft | 102 kts | 79° |
| 2026-04-13 22:58 | 10.12788 | -66.81152 | 1098 ft | 102 kts | 76° |
| 2026-04-13 22:58 | 10.12945 | -66.80443 | 846 ft | 104 kts | 75° |
| 2026-04-13 22:58 | 10.13100 | -66.79737 | 651 ft | 107 kts | 77° |
| 2026-04-13 22:59 | 10.13267 | -66.79006 | 578 ft | 98 kts | 77° |
| 2026-04-13 22:59 | 10.13367 | -66.78561 | 578 ft | 39 kts | 76° |
| 2026-04-13 22:59 | 10.13419 | -66.78331 | 578 ft | 27 kts | 78° |
| 2026-04-13 22:59 | 10.13450 | -66.78178 | 579 ft | 12 kts | 78° |
| 2026-04-13 23:00 | 10.13497 | -66.78157 | 579 ft | 9 kts | 343° |
| 2026-04-13 23:00 | 10.13502 | -66.78209 | 578 ft | 9 kts | 253° |
| 2026-04-13 23:00 | 10.13486 | -66.78277 | 578 ft | 11 kts | 257° |
| 2026-04-13 23:00 | 10.13468 | -66.78356 | 578 ft | 12 kts | 261° |
| 2026-04-13 23:01 | 10.13448 | -66.78447 | 578 ft | 14 kts | 257° |
| 2026-04-13 23:01 | 10.13426 | -66.78547 | 578 ft | 15 kts | 257° |
| 2026-04-13 23:01 | 10.13401 | -66.78654 | 578 ft | 16 kts | 255° |
| 2026-04-13 23:01 | 10.13411 | -66.78737 | 577 ft | 10 kts | 347° |
| 2026-04-13 23:02 | 10.13474 | -66.78746 | 577 ft | 3 kts | 323° |
| 2026-04-13 23:02 | 10.13474 | -66.78758 | 577 ft | 0 kts | 226° |